Duwamish, Washington
Current Conditions -  °F | °C
As of 5:53 PM on Friday 21 Nov 2014 (Local Time) from KSEA Reporting Station
Light Rain Light Rain  
Wind Chill: 44°   Ceiling: 2000
Heat Index: 49°   Visibility: 7mi
Dew Point: 46°   Wind: 12mph
Humidity: 90%   Direction: 130°SE
Pressure: 29.31"   Gusts: NA
Location:  47.4488°N, 122.28°W
Report Text: KSEA 220153Z 13010KT 7SM -RA FEW014 BKN020 OVC026 09/08 A2931 RMK AO2 SLP932 P0005 T00940078
Loading
Personal Weather Stations






























Interactive Weather Map New forecast layout! Learn more

10-Day Weather Forecast

Advertisements
Track Severe Weather on mobile